Tropical Cyclones
[Index]
Main Index Home Page Stock Weather Photos Extreme Storms Discussion Storm News and Storm Chasing Reports Tropical Cyclones / Hurricanes / Typhoons Weather Data and Links Wild Fires / Bushfires Weather Observation Techniques Weather Picture Catalogue Tornado Pictures and Reports Stock Video Footage and DVDs for sale
Season 1977-1978 Tropical Cyclone TESSA Track Map
Season 1977-1978 Summaries: [BoM-AU] [JTWC-AU] [JTWC-SIO] [JTWC-SPAC] [JTWC-SH]
<<- Previous TC | JTWC 1977-1978 Season | Next TC ->>

click for intensity scale information  Lat/long Grid: Show Hide

 Date Labels: Show Hide

Joint Typhoon Warning Centre Cyclone Data

Name: TESSA
Number: 961 / 7805

05 Dec 1977 00:00 UTC to 11 Dec 1977 00:00 UTC

    date/time    lat    long     hPa   cat  kts
1977-12-05 00   11.0   156.0W                 25          
1977-12-05 06   11.1   155.3W                 25          
1977-12-05 12   11.3   154.5W                 25          
1977-12-05 18   11.6   153.6W                 30          
1977-12-06 00   11.8   152.7W                 30          
1977-12-06 06   11.8   151.9W                 35          
1977-12-06 12   11.8   151.2W                 35          
1977-12-06 18   11.8   150.6W                 35          
1977-12-07 00   11.8   150.0W                 35          
1977-12-07 06   11.9   149.1W                 35          
1977-12-07 12   12.2   148.2W           1     40          
1977-12-07 18   12.5   147.6W           1     40          
1977-12-08 00   12.8   147.0W           1     40          
1977-12-08 06   13.1   146.0W           1     40          
1977-12-08 12   13.5   145.0W           1     40          
1977-12-08 18   13.8   144.3W                 35          
1977-12-09 00   14.1   143.6W                 35          
1977-12-09 06   14.5   142.4W                 30          
1977-12-09 12   15.0   141.0W                 30          
1977-12-09 18   15.5   139.5W                 30          
1977-12-10 00   16.0   138.0W                 30          
1977-12-10 06   16.7   136.3W                 30          
1977-12-10 12   17.7   134.4W                 30          
1977-12-10 18   18.7   132.3W                 30          
1977-12-11 00   19.8   129.9W                 30          
Winds are 1-min average.

Tropical cyclone tracks developed by Michael Bath using data from the Joint Typhoon Warning Centre Best Tracks and Google Maps.


[Australian Severe Weather index] [Copyright Notice] [Email Contacts] [Search This Site] [Privacy Policy]
Document: tropical_cyclone_tessa.htm Updated: 18 September 2016